Time;durP1;ratioP1;P1;durP2;ratioP2;P2;SDS_P1;SDS_P2;PMS_P1;PMS_P2;Temp;Humidity;BMP_temperature;BMP_pressure;BME280_temperature;BME280_humidity;BME280_pressure;Samples;Min_cycle;Max_cycle;Signal;HPM_P1;HPM_P2
2023/06/09 00:00:17;;;;;;;7.90;7.20;;;;;;;;;;5094008;28;20689;-66
2023/06/09 00:02:47;;;;;;;7.97;7.27;;;;;;;;;;5111017;28;20798;-66
2023/06/09 00:05:16;;;;;;;8.40;7.60;;;;;;;;;;5112631;28;20653;-66
2023/06/09 00:07:44;;;;;;;8.57;7.77;;;;;;;;;;5095146;28;20637;-66
2023/06/09 00:10:17;;;;;;;8.30;7.60;;;;;;;;;;5112004;28;20627;-66
2023/06/09 00:12:47;;;;;;;7.30;6.70;;;;;;;;;;5103707;28;20668;-66
2023/06/09 00:15:16;;;;;;;8.37;7.57;;;;;;;;;;5111587;28;20619;-66
2023/06/09 00:17:45;;;;;;;7.87;7.10;;;;;;;;;;5099612;28;20634;-66
2023/06/09 00:20:14;;;;;;;10.87;8.10;;;;;;;;;;5110977;28;20620;-65
2023/06/09 00:22:44;;;;;;;7.97;7.17;;;;;;;;;;5091766;28;20684;-66
2023/06/09 00:25:12;;;;;;;8.97;8.00;;;;;;;;;;5111532;28;20629;-67
2023/06/09 00:27:42;;;;;;;9.53;8.63;;;;;;;;;;5112039;28;20733;-67
2023/06/09 00:30:12;;;;;;;8.10;7.40;;;;;;;;;;5111718;28;20655;-66
2023/06/09 00:32:42;;;;;;;9.30;8.27;;;;;;;;;;5091775;28;20628;-66
2023/06/09 00:35:12;;;;;;;8.83;7.47;;;;;;;;;;5111079;28;20625;-66
2023/06/09 00:37:40;;;;;;;10.10;8.80;;;;;;;;;;5111267;28;20632;-66
2023/06/09 00:40:09;;;;;;;10.70;9.63;;;;;;;;;;5110663;28;20653;-66
2023/06/09 00:42:37;;;;;;;9.53;8.63;;;;;;;;;;5110140;28;20722;-65
2023/06/09 00:45:06;;;;;;;9.43;8.57;;;;;;;;;;5110238;28;20631;-66
2023/06/09 00:47:35;;;;;;;10.70;9.70;;;;;;;;;;5110297;28;20624;-66
2023/06/09 00:50:06;;;;;;;10.47;9.57;;;;;;;;;;5110502;28;20637;-66
2023/06/09 00:52:34;;;;;;;9.70;8.43;;;;;;;;;;5072404;28;20573;-66
2023/06/09 00:55:02;;;;;;;9.00;8.10;;;;;;;;;;5080649;28;20645;-66
2023/06/09 00:57:33;;;;;;;10.03;9.03;;;;;;;;;;5111077;28;20698;-66
2023/06/09 01:00:05;;;;;;;9.93;9.03;;;;;;;;;;5111345;28;20695;-67
2023/06/09 01:02:38;;;;;;;9.60;8.70;;;;;;;;;;5109277;28;20663;-66
2023/06/09 01:05:08;;;;;;;11.70;10.53;;;;;;;;;;5110763;28;20629;-65
2023/06/09 01:07:42;;;;;;;10.13;9.33;;;;;;;;;;5110949;28;20632;-65
2023/06/09 01:10:14;;;;;;;10.33;9.43;;;;;;;;;;5065945;28;20711;-65
2023/06/09 01:12:47;;;;;;;11.30;10.10;;;;;;;;;;5077549;28;20621;-66
2023/06/09 01:15:18;;;;;;;9.90;8.90;;;;;;;;;;5110324;28;20605;-66
2023/06/09 01:17:49;;;;;;;10.30;9.30;;;;;;;;;;5092974;28;20613;-65
2023/06/09 01:20:24;;;;;;;10.50;9.60;;;;;;;;;;5093338;28;20626;-65
2023/06/09 01:22:54;;;;;;;9.93;8.93;;;;;;;;;;5110471;28;20675;-65
2023/06/09 01:25:35;;;;;;;15.50;10.57;;;;;;;;;;5110848;28;20985;-66
2023/06/09 01:28:06;;;;;;;11.30;9.50;;;;;;;;;;5109927;28;20581;-65
2023/06/09 01:30:36;;;;;;;11.03;9.93;;;;;;;;;;5111303;28;20594;-66
2023/06/09 01:33:06;;;;;;;10.73;9.70;;;;;;;;;;5110201;28;20615;-66
2023/06/09 01:35:36;;;;;;;10.03;9.13;;;;;;;;;;5093117;28;20575;-65
2023/06/09 01:38:05;;;;;;;10.53;9.60;;;;;;;;;;5110230;28;20641;-66
2023/06/09 01:40:35;;;;;;;10.70;9.70;;;;;;;;;;5093249;28;20627;-66
2023/06/09 01:43:04;;;;;;;11.07;10.03;;;;;;;;;;5089719;28;20681;-66
2023/06/09 01:45:32;;;;;;;11.57;10.50;;;;;;;;;;5083100;28;20653;-65
2023/06/09 01:48:03;;;;;;;10.40;9.50;;;;;;;;;;5091410;28;20644;-66
2023/06/09 01:50:35;;;;;;;10.80;9.80;;;;;;;;;;5110226;28;20652;-66
2023/06/09 01:53:05;;;;;;;12.00;10.80;;;;;;;;;;5076726;28;20621;-66
2023/06/09 01:55:37;;;;;;;11.57;10.30;;;;;;;;;;5110730;28;20561;-67
2023/06/09 01:58:08;;;;;;;10.63;9.53;;;;;;;;;;5092652;28;20640;-66
2023/06/09 02:00:37;;;;;;;15.90;11.10;;;;;;;;;;5092214;28;20624;-66
2023/06/09 02:03:07;;;;;;;11.57;10.60;;;;;;;;;;5090220;28;20678;-65
2023/06/09 02:05:37;;;;;;;13.57;10.87;;;;;;;;;;5109265;28;20625;-66
2023/06/09 02:08:08;;;;;;;13.97;10.47;;;;;;;;;;5092278;28;20637;-66
2023/06/09 02:10:38;;;;;;;12.80;11.00;;;;;;;;;;5091687;28;20685;-66
2023/06/09 02:13:13;;;;;;;13.07;11.70;;;;;;;;;;5110000;28;20663;-65
2023/06/09 02:15:43;;;;;;;12.23;11.23;;;;;;;;;;5090979;28;20618;-66
2023/06/09 02:18:12;;;;;;;11.80;10.40;;;;;;;;;;5109922;28;20629;-66
2023/06/09 02:20:42;;;;;;;13.43;12.07;;;;;;;;;;5101687;28;20654;-66
2023/06/09 02:23:10;;;;;;;13.20;11.80;;;;;;;;;;5109034;28;20730;-66
2023/06/09 02:25:40;;;;;;;13.93;12.53;;;;;;;;;;5108458;28;20645;-66
2023/06/09 02:28:08;;;;;;;13.97;12.57;;;;;;;;;;5101130;28;20806;-63
2023/06/09 02:30:37;;;;;;;13.27;12.03;;;;;;;;;;5082220;28;20692;-63
2023/06/09 02:33:05;;;;;;;18.53;12.70;;;;;;;;;;5100229;28;21032;-63
2023/06/09 02:35:33;;;;;;;15.00;12.27;;;;;;;;;;5100587;28;20705;-63
2023/06/09 02:38:05;;;;;;;13.57;12.27;;;;;;;;;;5099225;28;20679;-64
2023/06/09 02:40:34;;;;;;;15.60;12.80;;;;;;;;;;5082836;28;20721;-63
2023/06/09 02:43:04;;;;;;;14.63;11.77;;;;;;;;;;5101401;28;21041;-64
2023/06/09 02:45:32;;;;;;;18.47;12.73;;;;;;;;;;5082965;28;20693;-63
2023/06/09 02:48:01;;;;;;;15.23;11.63;;;;;;;;;;5084340;28;20682;-63
2023/06/09 02:50:30;;;;;;;13.73;11.50;;;;;;;;;;5083832;28;20659;-63
2023/06/09 02:53:02;;;;;;;13.87;11.70;;;;;;;;;;5083601;28;20643;-64
2023/06/09 02:55:32;;;;;;;12.80;11.60;;;;;;;;;;5082542;28;20625;-63
2023/06/09 02:58:00;;;;;;;13.63;12.23;;;;;;;;;;5082147;28;20602;-63
2023/06/09 03:00:32;;;;;;;12.13;11.10;;;;;;;;;;5082501;28;21126;-63
2023/06/09 03:03:06;;;;;;;12.87;11.57;;;;;;;;;;5097048;28;20730;-63
2023/06/09 03:05:35;;;;;;;12.10;10.83;;;;;;;;;;5077916;28;20684;-63
2023/06/09 03:08:03;;;;;;;14.43;12.80;;;;;;;;;;5099245;28;20599;-63
2023/06/09 03:10:32;;;;;;;13.07;11.30;;;;;;;;;;5096259;28;20691;-64
2023/06/09 03:13:00;;;;;;;13.73;12.47;;;;;;;;;;5084737;28;20717;-63
2023/06/09 03:15:28;;;;;;;12.17;10.90;;;;;;;;;;5074308;28;20597;-65
2023/06/09 03:17:59;;;;;;;11.93;10.80;;;;;;;;;;5080222;28;20608;-63
2023/06/09 03:20:27;;;;;;;12.53;11.07;;;;;;;;;;5081521;28;20675;-63
2023/06/09 03:22:55;;;;;;;14.47;12.93;;;;;;;;;;5103276;28;20620;-63
2023/06/09 03:25:25;;;;;;;12.70;11.50;;;;;;;;;;5086715;28;20608;-63
2023/06/09 03:27:54;;;;;;;14.13;11.73;;;;;;;;;;5084730;28;20588;-63
2023/06/09 03:30:22;;;;;;;13.63;12.00;;;;;;;;;;5086413;28;20572;-63
2023/06/09 03:32:50;;;;;;;17.53;10.63;;;;;;;;;;5085040;28;20621;-63
2023/06/09 03:35:20;;;;;;;12.67;11.47;;;;;;;;;;5085495;28;20712;-62
2023/06/09 03:37:48;;;;;;;12.73;11.33;;;;;;;;;;5085821;28;20583;-63
2023/06/09 03:40:17;;;;;;;11.93;10.73;;;;;;;;;;5068140;28;20703;-63
2023/06/09 03:42:45;;;;;;;13.37;11.00;;;;;;;;;;5085115;28;20572;-63
2023/06/09 03:45:13;;;;;;;11.73;10.73;;;;;;;;;;5094252;28;20672;-63
2023/06/09 03:47:41;;;;;;;12.60;11.03;;;;;;;;;;5065787;28;20617;-63
2023/06/09 03:50:10;;;;;;;12.70;11.50;;;;;;;;;;5066092;28;20633;-63
2023/06/09 03:52:41;;;;;;;13.60;11.20;;;;;;;;;;5083613;28;20766;-63
2023/06/09 03:55:09;;;;;;;12.40;10.93;;;;;;;;;;5103402;28;20685;-63
2023/06/09 03:57:39;;;;;;;12.27;11.03;;;;;;;;;;5083139;28;21176;-63
2023/06/09 04:00:09;;;;;;;12.53;11.43;;;;;;;;;;5082572;28;20636;-63
2023/06/09 04:02:44;;;;;;;12.90;11.70;;;;;;;;;;5086591;28;20680;-63
2023/06/09 04:05:14;;;;;;;11.43;10.43;;;;;;;;;;5099636;28;20688;-63
2023/06/09 04:07:46;;;;;;;27.70;12.40;;;;;;;;;;5085962;28;20692;-63
2023/06/09 04:10:14;;;;;;;11.73;10.47;;;;;;;;;;5086016;28;20628;-63
2023/06/09 04:12:42;;;;;;;11.23;10.23;;;;;;;;;;5087329;28;20680;-63
2023/06/09 04:15:10;;;;;;;12.03;10.93;;;;;;;;;;5104354;28;21035;-63
2023/06/09 04:17:42;;;;;;;13.00;11.80;;;;;;;;;;5084625;28;20666;-63
2023/06/09 04:20:12;;;;;;;12.73;11.53;;;;;;;;;;5082103;28;20688;-63
2023/06/09 04:22:49;;;;;;;13.40;12.00;;;;;;;;;;5079684;28;20704;-63
2023/06/09 04:25:25;;;;;;;14.47;11.43;;;;;;;;;;5083571;28;20660;-62
2023/06/09 04:27:54;;;;;;;13.43;10.57;;;;;;;;;;5084424;28;20684;-64
2023/06/09 04:30:25;;;;;;;12.93;11.63;;;;;;;;;;5084121;28;21035;-63
2023/06/09 04:32:53;;;;;;;25.27;11.57;;;;;;;;;;5103135;28;20676;-63
2023/06/09 04:35:22;;;;;;;16.27;10.50;;;;;;;;;;5100757;28;21073;-64
2023/06/09 04:37:52;;;;;;;11.83;10.00;;;;;;;;;;5099488;28;20716;-63
2023/06/09 04:40:23;;;;;;;11.77;10.63;;;;;;;;;;5099956;28;20656;-63
2023/06/09 04:42:53;;;;;;;12.67;11.47;;;;;;;;;;5099237;28;20718;-65
2023/06/09 04:45:27;;;;;;;12.30;11.13;;;;;;;;;;5069978;28;20657;-63
2023/06/09 04:47:59;;;;;;;15.00;12.33;;;;;;;;;;5083303;28;20723;-63
2023/06/09 04:50:32;;;;;;;15.20;11.97;;;;;;;;;;5065066;28;20704;-63
2023/06/09 04:53:07;;;;;;;13.80;11.60;;;;;;;;;;5054139;28;20677;-63
2023/06/09 04:55:38;;;;;;;13.10;11.87;;;;;;;;;;5048430;28;20632;-63
2023/06/09 04:58:08;;;;;;;11.50;10.47;;;;;;;;;;5082666;28;20709;-63
2023/06/09 05:00:38;;;;;;;16.43;11.67;;;;;;;;;;5082581;28;20639;-64
2023/06/09 05:03:07;;;;;;;12.27;11.00;;;;;;;;;;5082116;28;20670;-64
2023/06/09 05:05:35;;;;;;;11.90;10.80;;;;;;;;;;5099303;28;20703;-64
2023/06/09 05:08:05;;;;;;;13.50;11.37;;;;;;;;;;5083603;28;20679;-63
2023/06/09 05:10:34;;;;;;;12.47;11.07;;;;;;;;;;5082417;28;21089;-63
2023/06/09 05:13:02;;;;;;;12.17;11.07;;;;;;;;;;5081945;28;20681;-63
2023/06/09 05:15:31;;;;;;;14.07;11.40;;;;;;;;;;5063157;28;20610;-63
2023/06/09 05:18:01;;;;;;;12.77;11.57;;;;;;;;;;5048236;28;20697;-63
2023/06/09 05:20:30;;;;;;;12.40;11.20;;;;;;;;;;5081183;28;20689;-63
2023/06/09 05:22:58;;;;;;;11.07;10.07;;;;;;;;;;5093578;28;20681;-64
2023/06/09 05:25:28;;;;;;;12.13;11.07;;;;;;;;;;5102376;28;20798;-64
2023/06/09 05:27:56;;;;;;;12.47;11.23;;;;;;;;;;5083902;28;20692;-63
2023/06/09 05:30:24;;;;;;;12.77;11.43;;;;;;;;;;5084318;28;20926;-64
2023/06/09 05:32:53;;;;;;;14.93;10.90;;;;;;;;;;5068240;28;20673;-63
2023/06/09 05:35:21;;;;;;;12.97;11.70;;;;;;;;;;5083163;28;20709;-64
2023/06/09 05:37:50;;;;;;;14.47;12.00;;;;;;;;;;5103218;28;20692;-63
2023/06/09 05:40:20;;;;;;;12.60;11.40;;;;;;;;;;5084337;28;20663;-63
2023/06/09 05:42:49;;;;;;;13.00;11.70;;;;;;;;;;5103358;28;20788;-64
2023/06/09 05:45:18;;;;;;;12.47;11.20;;;;;;;;;;5101831;28;20778;-64
2023/06/09 05:47:46;;;;;;;12.87;11.47;;;;;;;;;;5101744;28;20690;-64
2023/06/09 05:50:14;;;;;;;14.60;12.57;;;;;;;;;;5101382;28;20684;-64
2023/06/09 05:52:43;;;;;;;14.60;13.13;;;;;;;;;;5101431;28;20693;-63
2023/06/09 05:55:11;;;;;;;14.03;12.60;;;;;;;;;;5101304;28;20655;-63
2023/06/09 05:57:40;;;;;;;11.93;10.93;;;;;;;;;;5099846;28;20716;-63
2023/06/09 06:00:10;;;;;;;11.97;10.83;;;;;;;;;;5100874;28;21129;-64
2023/06/09 06:02:42;;;;;;;12.43;11.13;;;;;;;;;;5111580;28;21206;-63
2023/06/09 06:05:11;;;;;;;11.53;10.37;;;;;;;;;;5095184;28;20735;-64
2023/06/09 06:07:41;;;;;;;14.20;11.43;;;;;;;;;;5094202;28;20718;-63
2023/06/09 06:10:09;;;;;;;11.00;10.20;;;;;;;;;;5078393;28;20909;-64
2023/06/09 06:12:38;;;;;;;12.03;10.70;;;;;;;;;;5111494;28;20708;-63
2023/06/09 06:15:07;;;;;;;14.47;11.00;;;;;;;;;;5113280;28;20696;-66
2023/06/09 06:17:36;;;;;;;13.43;11.27;;;;;;;;;;5116077;28;20723;-63
2023/06/09 06:20:05;;;;;;;11.90;10.80;;;;;;;;;;5098596;28;20723;-63
2023/06/09 06:22:34;;;;;;;11.03;10.13;;;;;;;;;;5108833;28;20688;-63
2023/06/09 06:25:03;;;;;;;12.67;11.47;;;;;;;;;;5114594;28;20747;-64
2023/06/09 06:27:31;;;;;;;11.10;10.10;;;;;;;;;;5090401;28;21247;-63
2023/06/09 06:29:59;;;;;;;11.80;10.80;;;;;;;;;;5107661;28;20716;-63
2023/06/09 06:32:27;;;;;;;12.17;11.07;;;;;;;;;;5097425;28;20626;-65
2023/06/09 06:34:57;;;;;;;11.00;9.90;;;;;;;;;;5092644;28;20706;-65
2023/06/09 06:37:25;;;;;;;12.03;10.30;;;;;;;;;;5097894;28;20625;-65
2023/06/09 06:39:55;;;;;;;12.07;10.13;;;;;;;;;;5094698;28;20852;-65
2023/06/09 06:42:24;;;;;;;11.20;10.10;;;;;;;;;;5093263;28;20631;-65
2023/06/09 06:45:07;;;;;;;8.97;8.17;;;;;;;;;;5088232;28;20646;-65
2023/06/09 06:47:35;;;;;;;10.90;9.83;;;;;;;;;;5092085;28;20682;-65
2023/06/09 06:50:05;;;;;;;10.73;9.63;;;;;;;;;;5100908;28;20693;-65
2023/06/09 06:52:34;;;;;;;10.30;9.40;;;;;;;;;;5103570;28;20997;-65
2023/06/09 06:55:02;;;;;;;10.27;9.27;;;;;;;;;;5067128;28;21255;-65
2023/06/09 06:57:30;;;;;;;10.07;9.27;;;;;;;;;;5064724;28;20692;-65
2023/06/09 06:59:59;;;;;;;10.20;9.30;;;;;;;;;;5099769;28;20664;-65
2023/06/09 07:02:27;;;;;;;12.13;10.93;;;;;;;;;;5100258;28;20606;-65
2023/06/09 07:04:56;;;;;;;14.60;9.10;;;;;;;;;;5102694;28;20739;-65
2023/06/09 07:07:26;;;;;;;13.37;10.13;;;;;;;;;;5100973;28;20599;-65
2023/06/09 07:09:54;;;;;;;11.13;9.00;;;;;;;;;;5091646;28;20649;-65
2023/06/09 07:12:23;;;;;;;10.30;9.50;;;;;;;;;;5090974;28;21015;-65
2023/06/09 07:14:51;;;;;;;10.93;9.47;;;;;;;;;;5098111;28;20978;-65
2023/06/09 07:17:20;;;;;;;11.57;10.47;;;;;;;;;;5090261;28;20625;-65
2023/06/09 07:19:48;;;;;;;10.60;9.60;;;;;;;;;;5092003;28;20624;-65
2023/06/09 07:22:16;;;;;;;9.60;8.53;;;;;;;;;;5109515;28;20717;-65
2023/06/09 07:24:46;;;;;;;10.20;9.20;;;;;;;;;;5101275;28;20617;-65
2023/06/09 07:27:14;;;;;;;10.10;9.30;;;;;;;;;;5101427;28;20636;-65
2023/06/09 07:29:43;;;;;;;15.10;10.80;;;;;;;;;;5102682;28;20628;-65
2023/06/09 07:32:11;;;;;;;9.60;8.60;;;;;;;;;;5078369;28;20637;-65
2023/06/09 07:34:39;;;;;;;12.53;8.70;;;;;;;;;;5095074;28;20614;-65
2023/06/09 07:37:07;;;;;;;12.93;9.00;;;;;;;;;;5091336;28;21171;-65
2023/06/09 07:39:37;;;;;;;9.50;8.70;;;;;;;;;;5075111;28;20633;-65
2023/06/09 07:42:07;;;;;;;10.57;8.97;;;;;;;;;;5074280;28;20632;-65
2023/06/09 07:44:35;;;;;;;10.00;9.00;;;;;;;;;;5092164;28;20929;-65
2023/06/09 07:47:03;;;;;;;9.50;8.80;;;;;;;;;;5093472;28;20653;-65
2023/06/09 07:49:31;;;;;;;9.27;8.30;;;;;;;;;;5074591;28;20613;-65
2023/06/09 07:52:00;;;;;;;10.40;9.40;;;;;;;;;;5091222;28;21156;-65
2023/06/09 07:54:28;;;;;;;9.60;8.73;;;;;;;;;;5092279;28;20632;-65
2023/06/09 07:56:56;;;;;;;14.47;10.00;;;;;;;;;;5073761;28;20629;-65
2023/06/09 07:59:25;;;;;;;10.63;9.23;;;;;;;;;;5076243;28;20649;-65
2023/06/09 08:01:53;;;;;;;8.30;7.60;;;;;;;;;;5088037;28;20625;-65
2023/06/09 08:04:21;;;;;;;9.20;8.40;;;;;;;;;;5094542;28;21177;-66
2023/06/09 08:06:49;;;;;;;7.73;7.23;;;;;;;;;;5094422;28;20668;-65
2023/06/09 08:09:17;;;;;;;9.50;8.03;;;;;;;;;;5094593;28;21175;-66
2023/06/09 08:11:45;;;;;;;10.13;9.33;;;;;;;;;;5091751;28;20644;-66
2023/06/09 08:14:14;;;;;;;15.63;7.80;;;;;;;;;;5095409;28;20987;-66
2023/06/09 08:16:44;;;;;;;8.90;8.10;;;;;;;;;;5095580;28;20672;-65
2023/06/09 08:19:12;;;;;;;8.30;7.60;;;;;;;;;;5076990;28;20953;-65
2023/06/09 08:21:43;;;;;;;9.03;8.33;;;;;;;;;;5093694;28;21194;-65
2023/06/09 08:24:12;;;;;;;8.70;7.90;;;;;;;;;;5068161;28;20621;-66
2023/06/09 08:26:40;;;;;;;9.70;8.47;;;;;;;;;;5091311;28;21276;-66
2023/06/09 08:29:09;;;;;;;7.90;7.30;;;;;;;;;;5090679;28;20624;-66
2023/06/09 08:31:39;;;;;;;8.87;8.10;;;;;;;;;;5067433;28;20605;-63
2023/06/09 08:34:08;;;;;;;9.33;8.43;;;;;;;;;;5087951;28;21030;-63
2023/06/09 08:36:36;;;;;;;9.57;8.67;;;;;;;;;;5091256;28;20610;-63
2023/06/09 08:39:05;;;;;;;9.13;8.33;;;;;;;;;;5093619;28;20617;-63
2023/06/09 08:41:37;;;;;;;10.00;8.13;;;;;;;;;;5094607;28;20640;-63
2023/06/09 08:44:06;;;;;;;8.90;8.20;;;;;;;;;;5094866;28;20637;-63
2023/06/09 08:46:35;;;;;;;8.67;7.97;;;;;;;;;;5094934;28;20657;-63
2023/06/09 08:49:04;;;;;;;8.83;8.13;;;;;;;;;;5094722;28;20670;-63
2023/06/09 08:51:33;;;;;;;8.70;7.87;;;;;;;;;;5094550;28;20629;-63
2023/06/09 08:54:02;;;;;;;8.10;7.40;;;;;;;;;;5094091;28;20612;-63
2023/06/09 08:56:30;;;;;;;8.43;7.60;;;;;;;;;;5075976;28;21071;-65
2023/06/09 08:58:59;;;;;;;9.17;7.17;;;;;;;;;;5078865;28;21269;-66
2023/06/09 09:01:27;;;;;;;8.53;7.10;;;;;;;;;;5075352;28;21198;-64
2023/06/09 09:03:55;;;;;;;6.67;6.27;;;;;;;;;;5091498;28;20937;-63
2023/06/09 09:06:23;;;;;;;7.30;6.27;;;;;;;;;;5089834;28;20660;-63
2023/06/09 09:08:53;;;;;;;8.70;8.10;;;;;;;;;;5092745;28;20625;-63
2023/06/09 09:11:21;;;;;;;8.17;7.50;;;;;;;;;;5094306;28;21012;-64
2023/06/09 09:13:50;;;;;;;7.13;6.53;;;;;;;;;;5093244;28;20624;-66
2023/06/09 09:16:18;;;;;;;7.20;6.57;;;;;;;;;;5094254;28;20628;-66
2023/06/09 09:18:47;;;;;;;7.00;6.50;;;;;;;;;;5092661;28;21183;-66
2023/06/09 09:21:22;;;;;;;7.07;6.43;;;;;;;;;;5093863;28;20618;-64
2023/06/09 09:23:59;;;;;;;8.97;7.40;;;;;;;;;;5092131;28;20615;-63
2023/06/09 09:26:28;;;;;;;6.90;6.50;;;;;;;;;;5075376;28;20645;-63
2023/06/09 09:28:56;;;;;;;8.07;7.37;;;;;;;;;;5092678;28;20621;-64
2023/06/09 09:31:35;;;;;;;7.80;7.20;;;;;;;;;;5092825;28;20628;-64
2023/06/09 09:34:04;;;;;;;6.57;6.17;;;;;;;;;;5078786;28;21146;-64
2023/06/09 09:36:37;;;;;;;8.27;6.30;;;;;;;;;;5092890;28;20633;-64
2023/06/09 09:39:07;;;;;;;7.63;7.03;;;;;;;;;;5092889;28;20613;-64
2023/06/09 09:41:35;;;;;;;6.50;5.90;;;;;;;;;;5092681;28;20628;-64
2023/06/09 09:44:03;;;;;;;6.47;5.70;;;;;;;;;;5092353;28;20637;-64
2023/06/09 09:46:37;;;;;;;6.50;6.10;;;;;;;;;;5093308;28;20653;-64
2023/06/09 09:49:07;;;;;;;7.30;6.73;;;;;;;;;;5093281;28;20601;-64
2023/06/09 09:51:36;;;;;;;6.23;5.77;;;;;;;;;;5091536;28;20637;-64
2023/06/09 09:54:06;;;;;;;5.30;5.00;;;;;;;;;;5091619;28;20678;-64
2023/06/09 09:56:35;;;;;;;5.97;5.53;;;;;;;;;;5089665;28;20625;-64
2023/06/09 09:59:03;;;;;;;6.57;6.07;;;;;;;;;;5091974;28;21239;-64
2023/06/09 10:01:33;;;;;;;9.77;5.83;;;;;;;;;;5092219;28;20626;-64
2023/06/09 10:04:01;;;;;;;5.53;5.23;;;;;;;;;;5091281;28;20636;-65
2023/06/09 10:06:33;;;;;;;6.20;5.90;;;;;;;;;;5091565;28;20676;-64
2023/06/09 10:09:03;;;;;;;6.27;5.87;;;;;;;;;;5090663;28;21267;-64
2023/06/09 10:11:33;;;;;;;6.80;6.30;;;;;;;;;;5086057;28;20639;-64
2023/06/09 10:14:02;;;;;;;5.90;5.50;;;;;;;;;;5084431;28;20644;-64
2023/06/09 10:16:31;;;;;;;6.83;6.33;;;;;;;;;;5090574;28;20701;-64
2023/06/09 10:18:59;;;;;;;5.87;5.57;;;;;;;;;;5087625;28;21192;-64
2023/06/09 10:21:28;;;;;;;6.60;6.10;;;;;;;;;;5071833;28;20982;-64
2023/06/09 10:23:57;;;;;;;6.77;6.20;;;;;;;;;;5091303;28;20629;-64
2023/06/09 10:26:26;;;;;;;6.00;5.60;;;;;;;;;;5092198;28;20656;-64
2023/06/09 10:28:55;;;;;;;5.90;5.50;;;;;;;;;;5073302;28;20613;-64
2023/06/09 10:31:25;;;;;;;6.17;5.60;;;;;;;;;;5091901;28;21155;-64
2023/06/09 10:33:54;;;;;;;6.13;5.73;;;;;;;;;;5091492;28;20954;-64
2023/06/09 10:36:22;;;;;;;6.53;6.03;;;;;;;;;;5091983;28;20624;-64
2023/06/09 10:38:53;;;;;;;6.17;5.87;;;;;;;;;;5091641;28;20613;-64
2023/06/09 10:41:32;;;;;;;5.97;5.50;;;;;;;;;;5091566;28;20653;-64
2023/06/09 10:44:11;;;;;;;7.27;6.67;;;;;;;;;;5090158;28;21134;-64
2023/06/09 10:46:42;;;;;;;5.90;5.60;;;;;;;;;;5091246;28;20647;-64
2023/06/09 10:49:36;;;;;;;6.67;6.07;;;;;;;;;;5091271;28;20611;-64
2023/06/09 10:52:04;;;;;;;7.10;6.50;;;;;;;;;;5090923;28;20680;-64
2023/06/09 10:54:35;;;;;;;10.37;6.37;;;;;;;;;;5091304;28;20639;-64
2023/06/09 10:57:04;;;;;;;6.20;5.70;;;;;;;;;;5091192;28;20605;-64
2023/06/09 11:03:15;;;;;;;7.30;6.70;;;;;;;;;;5074124;28;21250;-64
2023/06/09 11:05:44;;;;;;;6.80;6.30;;;;;;;;;;5072130;28;20699;-66
2023/06/09 11:08:12;;;;;;;6.20;5.70;;;;;;;;;;5090227;28;20705;-66
2023/06/09 11:10:41;;;;;;;6.93;6.33;;;;;;;;;;5081925;28;20666;-66
2023/06/09 11:13:28;;;;;;;6.70;6.30;;;;;;;;;;5083718;28;21036;-66
2023/06/09 11:16:03;;;;;;;7.97;6.30;;;;;;;;;;5072196;28;20581;-66
2023/06/09 11:18:33;;;;;;;7.07;6.67;;;;;;;;;;5091586;28;20608;-66
2023/06/09 11:21:12;;;;;;;7.47;6.67;;;;;;;;;;5072787;28;20626;-66
2023/06/09 11:23:57;;;;;;;7.80;7.20;;;;;;;;;;5090769;28;20606;-65
2023/06/09 11:26:25;;;;;;;7.63;7.23;;;;;;;;;;5091057;28;20581;-66
2023/06/09 11:28:54;;;;;;;9.03;7.67;;;;;;;;;;5073311;28;20613;-65
2023/06/09 11:31:26;;;;;;;7.70;7.30;;;;;;;;;;5090185;28;20596;-66
2023/06/09 11:33:56;;;;;;;8.97;8.17;;;;;;;;;;5097222;28;21031;-66
2023/06/09 11:36:27;;;;;;;7.93;7.37;;;;;;;;;;5103669;28;20619;-66
2023/06/09 11:39:00;;;;;;;6.67;6.37;;;;;;;;;;5104504;28;20998;-65
2023/06/09 11:41:28;;;;;;;7.97;7.23;;;;;;;;;;5079076;28;20658;-66
2023/06/09 11:43:57;;;;;;;8.20;7.60;;;;;;;;;;5094979;28;20625;-66
2023/06/09 11:46:26;;;;;;;8.30;7.47;;;;;;;;;;5094432;28;21423;-65
2023/06/09 11:49:03;;;;;;;7.10;6.80;;;;;;;;;;5095772;28;20652;-65
2023/06/09 11:51:51;;;;;;;7.47;6.73;;;;;;;;;;5075149;28;20979;-66
2023/06/09 11:54:20;;;;;;;7.90;7.40;;;;;;;;;;5085546;28;20613;-66
2023/06/09 11:56:48;;;;;;;7.40;7.00;;;;;;;;;;5093528;28;20976;-66
2023/06/09 11:59:20;;;;;;;7.67;7.27;;;;;;;;;;5095401;28;20694;-66
2023/06/09 12:01:49;;;;;;;7.93;7.20;;;;;;;;;;5092909;28;20598;-66
2023/06/09 12:04:19;;;;;;;7.33;7.00;;;;;;;;;;5091846;28;20625;-66
2023/06/09 12:06:48;;;;;;;7.03;6.53;;;;;;;;;;5069384;28;20662;-66
2023/06/09 12:09:21;;;;;;;7.73;7.00;;;;;;;;;;5094260;28;20619;-66
2023/06/09 12:11:50;;;;;;;7.47;6.87;;;;;;;;;;5089571;28;20630;-66
2023/06/09 12:14:19;;;;;;;7.67;7.07;;;;;;;;;;5073745;28;20628;-66
2023/06/09 12:16:47;;;;;;;7.47;7.00;;;;;;;;;;5073008;28;20610;-67
2023/06/09 12:19:15;;;;;;;6.87;6.37;;;;;;;;;;5073004;28;20659;-67
2023/06/09 12:21:46;;;;;;;7.60;6.87;;;;;;;;;;5073379;28;20618;-67
2023/06/09 12:24:15;;;;;;;7.57;6.97;;;;;;;;;;5055729;28;20586;-66
2023/06/09 12:26:44;;;;;;;6.50;6.20;;;;;;;;;;5073442;28;20614;-66
2023/06/09 12:29:13;;;;;;;7.00;6.40;;;;;;;;;;5073295;28;20653;-66
2023/06/09 12:31:45;;;;;;;7.27;6.73;;;;;;;;;;5072391;28;20609;-66
2023/06/09 12:34:22;;;;;;;7.50;7.03;;;;;;;;;;5073421;28;20586;-66
2023/06/09 12:36:52;;;;;;;7.83;7.17;;;;;;;;;;5072773;28;21043;-66
2023/06/09 12:39:23;;;;;;;7.13;6.83;;;;;;;;;;5073075;28;20618;-66
2023/06/09 12:41:51;;;;;;;7.10;6.70;;;;;;;;;;5072361;28;20574;-66
2023/06/09 12:44:23;;;;;;;7.50;7.00;;;;;;;;;;5072458;28;20613;-66
2023/06/09 12:46:55;;;;;;;7.73;7.13;;;;;;;;;;5072816;28;20578;-67
2023/06/09 12:49:31;;;;;;;7.40;6.90;;;;;;;;;;5072518;28;20633;-67
2023/06/09 12:52:01;;;;;;;7.10;6.70;;;;;;;;;;5072911;28;20584;-66
2023/06/09 12:54:29;;;;;;;7.50;7.00;;;;;;;;;;5054989;28;20624;-66
2023/06/09 12:56:58;;;;;;;8.07;7.40;;;;;;;;;;5072674;28;20616;-66
2023/06/09 12:59:26;;;;;;;7.40;6.97;;;;;;;;;;5072323;28;20652;-66
2023/06/09 13:01:54;;;;;;;7.10;6.77;;;;;;;;;;5054266;28;20606;-66
2023/06/09 13:04:22;;;;;;;6.97;6.47;;;;;;;;;;5071655;28;20618;-66
2023/06/09 13:06:51;;;;;;;7.07;6.63;;;;;;;;;;5073447;28;20961;-66
2023/06/09 13:09:20;;;;;;;7.10;6.80;;;;;;;;;;5054249;28;20658;-66
2023/06/09 13:11:48;;;;;;;7.77;7.27;;;;;;;;;;5078561;28;20645;-66
2023/06/09 13:14:17;;;;;;;8.93;7.87;;;;;;;;;;5092611;28;20621;-66
2023/06/09 13:16:45;;;;;;;6.60;6.20;;;;;;;;;;5092354;28;20625;-66
2023/06/09 13:19:13;;;;;;;7.07;6.67;;;;;;;;;;5092637;28;20609;-66
2023/06/09 13:21:41;;;;;;;6.53;6.23;;;;;;;;;;5073482;28;20621;-66
2023/06/09 13:24:09;;;;;;;11.17;7.17;;;;;;;;;;5072402;28;20625;-66
2023/06/09 13:26:39;;;;;;;6.80;6.40;;;;;;;;;;5072281;28;20727;-66
2023/06/09 13:29:08;;;;;;;6.57;6.27;;;;;;;;;;5071819;28;20657;-66
2023/06/09 13:31:37;;;;;;;7.37;6.80;;;;;;;;;;5072343;28;20613;-66
2023/06/09 13:34:05;;;;;;;8.57;7.20;;;;;;;;;;5072456;28;20622;-66
2023/06/09 13:36:33;;;;;;;6.67;6.37;;;;;;;;;;5054310;28;20622;-66
2023/06/09 13:39:02;;;;;;;7.30;6.90;;;;;;;;;;5072237;28;20622;-67
2023/06/09 13:41:31;;;;;;;7.57;6.97;;;;;;;;;;5072783;28;20614;-66
2023/06/09 13:44:02;;;;;;;7.00;6.37;;;;;;;;;;5071729;28;20620;-66
2023/06/09 13:46:30;;;;;;;7.17;6.80;;;;;;;;;;5071822;28;20586;-66
2023/06/09 13:48:58;;;;;;;7.23;6.70;;;;;;;;;;5071436;28;20650;-66
2023/06/09 13:51:27;;;;;;;6.93;6.63;;;;;;;;;;5072131;28;20621;-67
2023/06/09 13:53:55;;;;;;;8.47;7.60;;;;;;;;;;5071660;28;20614;-67
2023/06/09 13:56:23;;;;;;;7.70;7.17;;;;;;;;;;5071318;28;20610;-67
2023/06/09 13:58:51;;;;;;;7.60;7.10;;;;;;;;;;5058622;28;20675;-66
2023/06/09 14:01:21;;;;;;;7.63;7.13;;;;;;;;;;5091332;28;20613;-66
2023/06/09 14:03:49;;;;;;;7.00;6.60;;;;;;;;;;5090256;28;20621;-67
2023/06/09 14:06:17;;;;;;;7.50;7.00;;;;;;;;;;5091518;28;21167;-67
2023/06/09 14:08:45;;;;;;;6.70;6.20;;;;;;;;;;5090791;28;20665;-67
2023/06/09 14:11:14;;;;;;;7.37;6.90;;;;;;;;;;5091606;28;20633;-66
2023/06/09 14:13:42;;;;;;;6.60;6.30;;;;;;;;;;5073333;28;20958;-66
2023/06/09 14:16:11;;;;;;;6.20;5.90;;;;;;;;;;5073885;28;20609;-66
2023/06/09 14:18:41;;;;;;;7.07;6.67;;;;;;;;;;5091590;28;20613;-67
2023/06/09 14:21:09;;;;;;;6.40;6.10;;;;;;;;;;5091490;28;21144;-67
2023/06/09 14:23:38;;;;;;;6.60;6.00;;;;;;;;;;5091313;28;21198;-67
2023/06/09 14:26:07;;;;;;;7.23;6.83;;;;;;;;;;5092040;28;20621;-67
2023/06/09 14:28:35;;;;;;;6.60;6.30;;;;;;;;;;5091383;28;20657;-67
2023/06/09 14:31:03;;;;;;;6.40;6.10;;;;;;;;;;5092123;28;20613;-65
2023/06/09 14:33:31;;;;;;;6.60;6.10;;;;;;;;;;5073211;28;20617;-65
2023/06/09 14:36:01;;;;;;;7.17;6.77;;;;;;;;;;5091745;28;20616;-65
2023/06/09 14:38:29;;;;;;;6.70;6.30;;;;;;;;;;5090790;28;20623;-67
2023/06/09 14:40:57;;;;;;;6.60;6.23;;;;;;;;;;5091267;28;20615;-66
2023/06/09 14:43:25;;;;;;;6.57;6.27;;;;;;;;;;5090899;28;21690;-67
2023/06/09 14:45:54;;;;;;;7.50;6.77;;;;;;;;;;5091650;28;20605;-67
2023/06/09 14:48:22;;;;;;;6.80;6.30;;;;;;;;;;5090809;28;20675;-66
2023/06/09 14:50:50;;;;;;;6.83;6.20;;;;;;;;;;5091520;28;20628;-66